Calgary, Canada
Current Conditions -  °F | °C
As of 4:00 PM on Monday 24 Nov 2014 (Local Time) from CYYC Reporting Station
Overcast Overcast  
Wind Chill: 25°   Ceiling: 21000
Heat Index: 32°   Visibility: 40mi
Dew Point: 25°   Wind: 8mph
Humidity: 75%   Direction: 190°S
Pressure: 29.86"   Gusts: NA
Location:  51.05°N, 114.06°W
Report Text: CYYC 242300Z 19007KT 40SM FEW025 FEW080 SCT130 OVC210 00/M04 A2986 RMK SC1AC2AS2CS4 SC TR SLP161
Loading
Personal Weather Stations






























Interactive Weather Map New forecast layout! Learn more

10-Day Weather Forecast

Advertisements
Track Severe Weather on mobile